createdAt,value
2023-03-20T00:01:30.267Z,3.10
2023-03-20T00:03:58.151Z,3.70
2023-03-20T00:06:27.575Z,3.50
2023-03-20T00:08:55.676Z,3.58
2023-03-20T00:11:33.730Z,3.45
2023-03-20T00:14:04.433Z,3.78
2023-03-20T00:16:37.445Z,3.53
2023-03-20T00:19:06.405Z,3.53
2023-03-20T00:21:34.399Z,3.42
2023-03-20T00:24:02.347Z,3.15
2023-03-20T00:26:34.228Z,4.07
2023-03-20T00:29:04.238Z,4.30
2023-03-20T00:31:40.156Z,5.32
2023-03-20T00:34:13.551Z,4.88
2023-03-20T00:36:41.113Z,5.38
2023-03-20T00:39:08.831Z,4.90
2023-03-20T00:41:38.815Z,4.95
2023-03-20T00:44:27.561Z,5.88
2023-03-20T00:46:57.434Z,5.70
2023-03-20T00:49:31.264Z,5.53
2023-03-20T00:51:58.596Z,5.82
2023-03-20T00:54:28.797Z,5.80
2023-03-20T01:02:35.688Z,6.55
2023-03-20T01:05:04.611Z,5.88
2023-03-20T01:07:32.640Z,6.80
2023-03-20T01:10:05.731Z,6.10
2023-03-20T01:12:34.238Z,5.40
2023-03-20T01:15:01.951Z,4.80
2023-03-20T01:17:30.219Z,5.85
2023-03-20T01:20:05.275Z,5.47
2023-03-20T01:22:40.172Z,5.47
2023-03-20T01:25:12.050Z,5.50
2023-03-20T01:27:41.728Z,4.65
2023-03-20T01:30:35.652Z,4.22
2023-03-20T01:33:27.066Z,4.13
2023-03-20T01:35:55.262Z,4.00
2023-03-20T01:38:27.524Z,4.18
2023-03-20T01:41:04.057Z,3.90
2023-03-20T01:43:35.106Z,3.92
2023-03-20T01:46:15.048Z,4.57
2023-03-20T01:48:51.403Z,3.85
2023-03-20T01:51:27.076Z,4.55
2023-03-20T01:54:09.582Z,4.15
2023-03-20T01:57:08.092Z,4.25
2023-03-20T01:59:47.149Z,5.50
2023-03-20T02:02:19.154Z,5.50
2023-03-20T02:04:54.360Z,5.43
2023-03-20T02:07:23.753Z,5.90
2023-03-20T02:09:54.090Z,5.82
2023-03-20T02:12:22.837Z,6.68
2023-03-20T02:15:04.095Z,7.07
2023-03-20T02:17:31.726Z,6.95
2023-03-20T02:20:08.196Z,6.47
2023-03-20T02:22:55.511Z,6.65
2023-03-20T02:25:41.796Z,6.82
2023-03-20T02:28:29.564Z,7.20
2023-03-20T02:31:28.464Z,6.45
2023-03-20T02:34:17.593Z,6.38
2023-03-20T02:37:16.384Z,7.30
2023-03-20T02:40:02.234Z,7.32
2023-03-20T02:42:48.498Z,7.18
2023-03-20T02:45:54.324Z,7.07
2023-03-20T02:48:53.764Z,6.55
2023-03-20T02:51:33.990Z,6.85
2023-03-20T02:54:11.163Z,5.85
2023-03-20T02:56:51.763Z,6.63
2023-03-20T02:59:58.141Z,7.43
2023-03-20T03:02:39.474Z,6.95
2023-03-20T03:05:34.411Z,8.07
2023-03-20T03:08:05.953Z,7.80
2023-03-20T03:10:38.862Z,6.28
2023-03-20T03:13:11.518Z,6.20
2023-03-20T03:15:46.770Z,6.57
2023-03-20T03:18:19.942Z,6.40
2023-03-20T03:20:50.831Z,6.15
2023-03-20T03:23:32.608Z,6.97
2023-03-20T03:26:05.268Z,6.47
2023-03-20T03:28:41.309Z,5.40
2023-03-20T03:31:18.230Z,5.43
2023-03-20T03:33:48.809Z,5.55
2023-03-20T03:36:35.953Z,5.55
2023-03-20T03:39:12.875Z,5.07
2023-03-20T03:41:51.648Z,4.60
2023-03-20T03:44:30.730Z,5.20
2023-03-20T03:47:20.256Z,5.18
2023-03-20T03:49:56.331Z,4.65
2023-03-20T03:52:32.028Z,4.75
2023-03-20T03:55:18.572Z,4.35
2023-03-20T03:57:54.399Z,4.50
2023-03-20T04:00:24.581Z,3.90
2023-03-20T04:02:56.842Z,3.85
2023-03-20T04:05:28.120Z,4.03
2023-03-20T04:07:59.295Z,4.00
2023-03-20T04:10:26.720Z,6.22
2023-03-20T04:12:53.979Z,6.70
2023-03-20T04:15:22.615Z,6.07
2023-03-20T04:17:52.487Z,6.50
2023-03-20T04:20:20.202Z,5.75
2023-03-20T04:22:53.443Z,6.07
2023-03-20T04:25:29.063Z,6.20
2023-03-20T04:27:57.028Z,5.25
2023-03-20T04:30:26.436Z,5.40
2023-03-20T04:32:53.672Z,5.43
2023-03-20T04:35:24.432Z,6.20
2023-03-20T04:37:54.522Z,5.68
2023-03-20T04:40:24.059Z,6.35
2023-03-20T04:42:51.571Z,6.75
2023-03-20T04:45:18.585Z,6.15
2023-03-20T04:47:46.083Z,7.57
2023-03-20T04:50:14.476Z,8.75
2023-03-20T04:52:41.412Z,8.15
2023-03-20T04:55:08.615Z,7.70
2023-03-20T04:57:35.512Z,8.70
2023-03-20T05:00:02.270Z,8.18
2023-03-20T05:02:29.003Z,8.05
2023-03-20T05:04:56.283Z,10.52
2023-03-20T05:07:23.035Z,13.40
2023-03-20T05:09:52.337Z,11.65
2023-03-20T05:12:19.303Z,10.00
2023-03-20T05:14:45.965Z,8.90
2023-03-20T05:17:13.010Z,7.35
2023-03-20T05:19:39.901Z,7.90
2023-03-20T05:22:06.648Z,8.35
2023-03-20T05:24:33.601Z,7.03
2023-03-20T05:27:00.842Z,7.10
2023-03-20T05:29:27.811Z,8.70
2023-03-20T05:31:57.575Z,8.35
2023-03-20T05:34:24.917Z,7.63
2023-03-20T05:36:51.672Z,8.40
2023-03-20T05:39:18.540Z,8.30
2023-03-20T05:41:46.001Z,7.90
2023-03-20T05:44:12.719Z,7.32
2023-03-20T05:46:39.584Z,8.05
2023-03-20T05:49:06.719Z,7.90
2023-03-20T05:51:33.653Z,7.85
2023-03-20T05:54:00.810Z,9.20
2023-03-20T05:56:27.769Z,8.95
2023-03-20T05:58:54.519Z,9.60
2023-03-20T06:01:24.119Z,9.10
2023-03-20T06:03:51.367Z,10.32
2023-03-20T06:06:18.328Z,10.10
2023-03-20T06:08:48.189Z,10.38
2023-03-20T06:11:16.183Z,10.15
2023-03-20T06:13:42.989Z,8.93
2023-03-20T06:16:10.688Z,9.05
2023-03-20T06:18:39.387Z,10.75
2023-03-20T06:21:06.315Z,10.40
2023-03-20T06:23:33.265Z,10.77
2023-03-20T06:26:00.441Z,11.02
2023-03-20T06:28:27.420Z,11.13
2023-03-20T06:30:54.672Z,11.82
2023-03-20T06:33:22.260Z,11.07
2023-03-20T06:35:49.361Z,10.30
2023-03-20T06:38:16.841Z,10.20
2023-03-20T06:40:45.391Z,11.15
2023-03-20T06:43:12.602Z,10.85
2023-03-20T06:45:39.889Z,10.70
2023-03-20T06:48:11.592Z,11.85
2023-03-20T06:50:38.407Z,12.55
2023-03-20T06:53:05.293Z,12.98
2023-03-20T06:55:32.020Z,11.88
2023-03-20T06:57:58.700Z,12.57
2023-03-20T07:00:26.035Z,11.40
2023-03-20T07:02:53.227Z,12.68
2023-03-20T07:05:20.104Z,11.50
2023-03-20T07:07:47.118Z,11.43
2023-03-20T07:10:13.954Z,10.85
2023-03-20T07:12:40.677Z,10.45
2023-03-20T07:15:10.186Z,10.15
2023-03-20T07:17:37.574Z,9.32
2023-03-20T07:20:05.190Z,10.27
2023-03-20T07:22:31.983Z,10.63
2023-03-20T07:24:58.927Z,10.50
2023-03-20T07:27:26.391Z,9.25
2023-03-20T07:29:53.360Z,10.07
2023-03-20T07:32:24.039Z,10.93
2023-03-20T07:34:53.879Z,9.85
2023-03-20T07:37:20.732Z,9.23
2023-03-20T07:39:47.780Z,8.90
2023-03-20T07:42:14.581Z,8.73
2023-03-20T07:44:41.397Z,8.25
2023-03-20T07:47:08.923Z,8.00
2023-03-20T07:49:35.702Z,9.23
2023-03-20T07:52:02.810Z,9.52
2023-03-20T07:54:29.782Z,8.98
2023-03-20T07:56:56.762Z,8.98
2023-03-20T07:59:23.693Z,9.05
2023-03-20T08:01:50.516Z,9.35
2023-03-20T08:04:19.768Z,8.95
2023-03-20T08:06:46.985Z,8.90
2023-03-20T08:09:14.150Z,8.45
2023-03-20T08:11:40.969Z,8.48
2023-03-20T08:14:08.144Z,8.43
2023-03-20T08:16:35.201Z,8.35
2023-03-20T08:19:08.537Z,8.30
2023-03-20T08:21:36.105Z,9.43
2023-03-20T08:24:03.002Z,8.75
2023-03-20T08:26:42.112Z,8.85
2023-03-20T08:29:09.107Z,7.93
2023-03-20T08:31:40.227Z,8.45
2023-03-20T08:34:08.041Z,8.73
2023-03-20T08:36:34.948Z,7.97
2023-03-20T08:39:01.762Z,8.05
2023-03-20T08:41:28.911Z,7.60
2023-03-20T08:43:57.100Z,7.88
2023-03-20T08:46:23.864Z,7.95
2023-03-20T08:48:51.940Z,7.82
2023-03-20T08:51:18.819Z,8.43
2023-03-20T08:53:45.667Z,6.95
2023-03-20T08:56:13.520Z,6.50
2023-03-20T08:58:40.504Z,6.90
2023-03-20T09:01:09.275Z,7.20
2023-03-20T09:03:37.157Z,7.50
2023-03-20T09:06:10.960Z,7.40
2023-03-20T09:08:38.118Z,6.35
2023-03-20T09:11:05.875Z,6.05
2023-03-20T09:13:33.046Z,5.85
2023-03-20T09:16:00.531Z,6.05
2023-03-20T09:18:30.723Z,6.18
2023-03-20T09:20:57.708Z,5.65
2023-03-20T09:23:24.756Z,6.13
2023-03-20T09:25:51.584Z,5.13
2023-03-20T09:28:18.565Z,5.88
2023-03-20T09:30:46.454Z,5.57
2023-03-20T09:33:15.019Z,5.35
2023-03-20T09:35:43.676Z,5.22
2023-03-20T09:38:12.778Z,4.72
2023-03-20T09:40:57.022Z,4.70
2023-03-20T09:43:29.704Z,4.13
2023-03-20T09:46:33.415Z,4.45
2023-03-20T09:49:31.090Z,3.47
2023-03-20T09:52:06.753Z,3.92
2023-03-20T09:54:54.408Z,3.22
2023-03-20T09:57:34.816Z,4.15
2023-03-20T10:00:07.527Z,3.65
2023-03-20T10:02:54.516Z,3.00
2023-03-20T10:05:46.843Z,3.42
2023-03-20T10:08:21.088Z,3.50
2023-03-20T10:10:52.503Z,3.50
2023-03-20T10:13:37.732Z,3.65
2023-03-20T10:16:28.018Z,3.42
2023-03-20T10:19:18.526Z,2.67
2023-03-20T10:21:50.387Z,3.30
2023-03-20T10:24:20.077Z,3.28
2023-03-20T10:26:51.383Z,3.58
2023-03-20T10:29:38.340Z,3.47
2023-03-20T10:32:30.082Z,4.60
2023-03-20T10:35:21.705Z,3.90
2023-03-20T10:38:04.446Z,3.47
2023-03-20T10:40:36.393Z,3.92
2023-03-20T10:43:25.204Z,3.22
2023-03-20T10:46:08.188Z,3.05
2023-03-20T10:48:44.287Z,3.15
2023-03-20T10:51:21.410Z,3.08
2023-03-20T10:53:57.199Z,2.90
2023-03-20T10:56:45.220Z,3.33
2023-03-20T10:59:25.459Z,3.92
2023-03-20T11:01:52.424Z,2.88
2023-03-20T11:04:19.875Z,2.53
2023-03-20T11:06:53.521Z,5.70
2023-03-20T11:09:23.175Z,2.97
2023-03-20T11:11:55.719Z,3.13
2023-03-20T11:14:28.237Z,3.08
2023-03-20T11:17:00.864Z,2.50
2023-03-20T11:19:27.813Z,2.85
2023-03-20T11:22:00.432Z,2.83
2023-03-20T11:24:47.643Z,2.95
2023-03-20T11:27:40.803Z,2.90
2023-03-20T11:30:17.666Z,2.70
2023-03-20T11:32:56.447Z,3.10
2023-03-20T11:35:26.483Z,3.13
2023-03-20T11:38:08.802Z,2.90
2023-03-20T11:40:42.142Z,4.10
2023-03-20T11:43:36.945Z,3.42
2023-03-20T11:46:14.251Z,3.40
2023-03-20T11:48:45.800Z,3.20
2023-03-20T11:51:23.207Z,2.70
2023-03-20T11:53:50.424Z,3.17
2023-03-20T11:56:26.598Z,2.75
2023-03-20T11:58:58.605Z,2.83
2023-03-20T12:01:30.099Z,2.47
2023-03-20T12:04:16.489Z,2.65
2023-03-20T12:06:46.755Z,3.08
2023-03-20T12:09:32.226Z,3.00
2023-03-20T12:12:08.963Z,2.80
2023-03-20T12:15:06.035Z,3.30
2023-03-20T12:17:41.530Z,3.35
2023-03-20T12:20:53.784Z,3.58
2023-03-20T12:23:46.055Z,2.38
2023-03-20T12:26:22.929Z,3.22
2023-03-20T12:28:52.606Z,3.00
2023-03-20T12:31:51.829Z,2.92
2023-03-20T12:34:33.297Z,2.33
2023-03-20T12:37:00.674Z,3.20
2023-03-20T12:39:34.723Z,3.10
2023-03-20T12:42:09.934Z,2.80
2023-03-20T12:44:39.880Z,3.10
2023-03-20T12:47:44.177Z,2.63
2023-03-20T12:50:34.408Z,2.17
2023-03-20T12:53:26.821Z,2.22
2023-03-20T12:56:22.437Z,2.63
2023-03-20T12:58:59.991Z,2.80
2023-03-20T13:01:32.216Z,2.67
2023-03-20T13:04:04.903Z,2.53
2023-03-20T13:06:38.163Z,3.35
2023-03-20T13:09:29.561Z,2.00
2023-03-20T13:12:24.816Z,2.13
2023-03-20T13:15:16.411Z,2.70
2023-03-20T13:17:54.491Z,2.20
2023-03-20T13:20:29.266Z,2.10
2023-03-20T13:23:30.226Z,2.10
2023-03-20T13:26:17.431Z,2.35
2023-03-20T13:29:02.790Z,1.88
2023-03-20T13:31:38.616Z,1.80
2023-03-20T13:34:32.147Z,1.65
2023-03-20T13:37:50.157Z,1.75
2023-03-20T13:40:29.717Z,1.80
2023-03-20T13:43:02.576Z,2.13
2023-03-20T13:45:31.907Z,2.58
2023-03-20T13:48:04.878Z,2.35
2023-03-20T13:50:41.836Z,2.22
2023-03-20T13:53:22.724Z,2.35
2023-03-20T13:56:08.948Z,2.55
2023-03-20T13:58:49.955Z,2.30
2023-03-20T14:01:41.905Z,2.65
2023-03-20T14:04:17.409Z,2.70
2023-03-20T14:06:49.988Z,1.92
2023-03-20T14:09:40.765Z,2.22
2023-03-20T14:12:13.531Z,2.05
2023-03-20T14:14:57.428Z,1.70
2023-03-20T14:17:32.872Z,2.00
2023-03-20T14:20:13.043Z,1.80
2023-03-20T14:22:42.973Z,1.88
2023-03-20T14:25:20.175Z,2.38
2023-03-20T14:28:07.529Z,2.00
2023-03-20T14:30:47.666Z,2.30
2023-03-20T14:33:17.810Z,2.35
2023-03-20T14:35:52.087Z,2.15
2023-03-20T14:38:53.344Z,2.00
2023-03-20T14:42:01.219Z,1.90
2023-03-20T14:44:48.238Z,2.80
2023-03-20T14:47:30.651Z,2.30
2023-03-20T14:50:20.481Z,2.00
2023-03-20T14:52:57.188Z,2.63
2023-03-20T14:55:30.524Z,2.90
2023-03-20T14:58:27.229Z,2.30
2023-03-20T15:00:54.223Z,3.83
2023-03-20T15:03:22.214Z,2.90
2023-03-20T15:06:00.788Z,2.42
2023-03-20T15:08:34.850Z,3.03
2023-03-20T15:11:08.739Z,2.85
2023-03-20T15:13:40.747Z,2.70
2023-03-20T15:16:11.294Z,2.85
2023-03-20T15:18:51.644Z,2.90
2023-03-20T15:21:28.765Z,2.65
2023-03-20T15:23:55.718Z,2.90
2023-03-20T15:26:25.270Z,3.00
2023-03-20T15:29:01.048Z,3.17
2023-03-20T15:31:33.060Z,3.50
2023-03-20T15:34:02.876Z,3.53
2023-03-20T15:36:34.884Z,3.22
2023-03-20T15:39:06.431Z,2.38
2023-03-20T15:41:35.454Z,2.92
2023-03-20T15:44:21.771Z,3.03
2023-03-20T15:46:57.191Z,3.97
2023-03-20T15:49:25.856Z,3.35
2023-03-20T15:51:54.733Z,3.40
2023-03-20T15:54:21.981Z,3.63
2023-03-20T15:56:52.135Z,3.35
2023-03-20T15:59:24.946Z,2.70
2023-03-20T16:01:56.413Z,2.85
2023-03-20T16:04:25.945Z,3.60
2023-03-20T16:06:58.665Z,3.60
2023-03-20T16:09:26.915Z,4.70
2023-03-20T16:12:03.273Z,5.38
2023-03-20T16:14:33.493Z,4.70
2023-03-20T16:17:05.614Z,5.05
2023-03-20T16:19:35.684Z,4.43
2023-03-20T16:22:12.832Z,4.55
2023-03-20T16:24:40.979Z,4.63
2023-03-20T16:27:11.289Z,3.42
2023-03-20T16:29:43.848Z,4.35
2023-03-20T16:32:33.472Z,4.38
2023-03-20T16:35:25.930Z,4.30
2023-03-20T16:37:58.196Z,4.35
2023-03-20T16:40:28.721Z,4.05
2023-03-20T16:42:57.321Z,4.60
2023-03-20T16:45:24.244Z,4.85
2023-03-20T16:47:51.467Z,5.38
2023-03-20T16:50:23.337Z,6.70
2023-03-20T16:52:58.805Z,8.85
2023-03-20T16:55:42.819Z,9.88
2023-03-20T16:58:15.348Z,14.95
2023-03-20T17:00:46.150Z,15.48
2023-03-20T17:03:19.010Z,14.82
2023-03-20T17:09:18.703Z,14.40
2023-03-20T17:12:22.779Z,15.30
2023-03-20T17:14:52.469Z,18.58
2023-03-20T17:17:22.522Z,18.17
2023-03-20T17:19:51.401Z,13.77
2023-03-20T17:25:02.055Z,7.40
2023-03-20T17:28:10.918Z,6.68
2023-03-20T17:30:38.968Z,6.68
2023-03-20T17:33:13.522Z,5.75
2023-03-20T17:35:40.902Z,5.75
2023-03-20T17:38:21.577Z,6.00
2023-03-20T17:40:52.198Z,5.60
2023-03-20T17:43:21.859Z,4.70
2023-03-20T17:45:49.413Z,4.43
2023-03-20T17:48:21.797Z,5.07
2023-03-20T17:50:53.000Z,4.78
2023-03-20T17:53:25.401Z,5.47
2023-03-20T17:55:53.274Z,7.22
2023-03-20T17:58:29.970Z,5.38
2023-03-20T18:00:57.070Z,4.90
2023-03-20T18:03:23.881Z,3.95
2023-03-20T18:05:51.700Z,3.45
2023-03-20T18:08:23.860Z,3.38
2023-03-20T18:10:53.023Z,3.47
2023-03-20T18:13:21.492Z,4.05
2023-03-20T18:15:52.658Z,4.20
2023-03-20T18:18:23.768Z,3.88
2023-03-20T18:20:52.395Z,3.40
2023-03-20T18:23:19.583Z,2.70
2023-03-20T18:25:46.523Z,2.97
2023-03-20T18:28:20.961Z,3.38
2023-03-20T18:30:49.110Z,3.25
2023-03-20T18:33:29.486Z,2.90
2023-03-20T18:36:02.924Z,3.25
2023-03-20T18:38:32.839Z,3.53
2023-03-20T18:41:01.352Z,3.50
2023-03-20T18:43:33.358Z,3.22
2023-03-20T18:46:02.350Z,4.20
2023-03-20T18:48:34.396Z,3.47
2023-03-20T18:51:11.166Z,3.58
2023-03-20T18:53:41.494Z,3.53
2023-03-20T18:56:23.589Z,3.28
2023-03-20T18:58:52.593Z,2.80
2023-03-20T19:01:21.136Z,3.22
2023-03-20T19:03:48.232Z,2.75
2023-03-20T19:06:21.493Z,2.90
2023-03-20T19:08:49.944Z,3.55
2023-03-20T19:11:21.209Z,3.40
2023-03-20T19:13:52.824Z,2.55
2023-03-20T19:16:19.613Z,2.88
2023-03-20T19:18:46.813Z,3.78
2023-03-20T19:21:18.344Z,3.78
2023-03-20T19:23:45.507Z,3.58
2023-03-20T19:26:17.861Z,3.17
2023-03-20T19:28:46.543Z,3.47
2023-03-20T19:31:13.414Z,3.03
2023-03-20T19:33:41.081Z,3.35
2023-03-20T19:36:19.947Z,2.75
2023-03-20T19:38:46.583Z,3.53
2023-03-20T19:41:14.989Z,2.83
2023-03-20T19:43:52.075Z,3.00
2023-03-20T19:46:38.761Z,2.75
2023-03-20T19:49:06.954Z,2.83
2023-03-20T19:51:33.949Z,2.85
2023-03-20T19:54:00.758Z,2.85
2023-03-20T19:56:28.112Z,3.30
2023-03-20T19:58:55.031Z,2.60
2023-03-20T20:01:25.284Z,3.22
2023-03-20T20:03:58.051Z,3.20
2023-03-20T20:06:31.225Z,2.95
2023-03-20T20:08:59.782Z,3.08
2023-03-20T20:11:26.748Z,4.97
2023-03-20T20:14:10.336Z,3.58
2023-03-20T20:16:43.269Z,3.33
2023-03-20T20:19:10.799Z,3.22
2023-03-20T20:25:22.643Z,3.80
2023-03-20T20:27:49.741Z,3.92
2023-03-20T20:30:19.225Z,2.53
2023-03-20T20:32:46.819Z,2.70
2023-03-20T20:35:41.925Z,2.58
2023-03-20T20:38:37.145Z,2.45
2023-03-20T20:40:50.129Z,2.60
2023-03-20T20:43:39.248Z,2.00
2023-03-20T20:46:04.393Z,1.95
2023-03-20T20:48:31.970Z,2.40
2023-03-20T20:51:02.342Z,3.20
2023-03-20T20:53:29.226Z,2.78
2023-03-20T20:55:57.328Z,2.38
2023-03-20T20:59:04.064Z,2.65
2023-03-20T21:01:34.568Z,2.50
2023-03-20T21:04:02.464Z,2.42
2023-03-20T21:07:03.505Z,3.20
2023-03-20T21:09:18.170Z,2.70
2023-03-20T21:11:47.563Z,3.15
2023-03-20T21:14:15.237Z,2.67
2023-03-20T21:16:42.378Z,2.65
2023-03-20T21:19:12.117Z,3.10
2023-03-20T21:21:41.050Z,2.58
2023-03-20T21:24:30.435Z,2.85
2023-03-20T21:26:59.090Z,2.50
2023-03-20T21:29:27.107Z,2.70
2023-03-20T21:31:54.205Z,3.30
2023-03-20T21:34:22.315Z,2.83
2023-03-20T21:36:51.642Z,2.45
2023-03-20T21:39:26.054Z,2.30
2023-03-20T21:41:54.357Z,2.47
2023-03-20T21:44:58.023Z,2.47
2023-03-20T21:47:58.568Z,2.10
2023-03-20T21:50:47.764Z,2.30
2023-03-20T21:59:20.869Z,2.50
2023-03-20T22:02:02.351Z,2.45
2023-03-20T22:13:21.031Z,2.50
2023-03-20T22:15:54.928Z,1.90
2023-03-20T22:19:00.338Z,2.50
2023-03-20T22:24:31.058Z,2.60
2023-03-20T22:35:38.794Z,2.97
2023-03-20T22:38:41.270Z,2.75
2023-03-20T22:44:24.747Z,4.07
2023-03-20T22:46:14.231Z,2.95
2023-03-20T22:48:46.858Z,4.00
2023-03-20T22:51:13.893Z,3.45
2023-03-20T22:53:40.944Z,4.43
2023-03-20T22:56:08.269Z,3.55
2023-03-20T22:58:35.818Z,4.40
2023-03-20T23:01:02.986Z,6.03
2023-03-20T23:03:40.756Z,5.45
2023-03-20T23:06:19.931Z,5.10
2023-03-20T23:08:53.954Z,5.35
2023-03-20T23:11:24.805Z,4.53
2023-03-20T23:13:51.920Z,4.00
2023-03-20T23:16:19.555Z,3.65
2023-03-20T23:18:46.514Z,3.78
2023-03-20T23:21:35.958Z,3.35
2023-03-20T23:24:06.409Z,3.08
2023-03-20T23:26:33.914Z,2.90
2023-03-20T23:29:03.653Z,2.53
2023-03-20T23:31:31.193Z,3.28
2023-03-20T23:33:58.978Z,3.03
2023-03-20T23:36:36.446Z,2.88
2023-03-20T23:39:10.687Z,7.47
2023-03-20T23:44:31.020Z,8.48
2023-03-20T23:47:11.286Z,7.05
2023-03-20T23:49:48.921Z,6.93
2023-03-20T23:52:16.645Z,6.60
2023-03-20T23:54:49.199Z,5.25
2023-03-20T23:57:26.008Z,6.18
2023-03-20T23:59:55.370Z,4.57
